Terminal Aerodrome Forecast
Issued by NWS

Home | Current Version | Previous Version | Graphics & Text | Print | Product List | Glossary On
Versions: 1 2 3 4 5 6 7 8 9 10 11 12 13 14 15 16 17 18 19 20 21 22 23 24 25 26 27 28 29 30 31 32
000
FTUS45 KGGW 230200 RRA
TAFGDV
TAF
KGDV 230219Z 2302/2324 14009KT P6SM BKN070
     FM230900 VRB05KT P6SM BKN100
     FM231500 09009KT P6SM BKN040
     FM231800 09013KT P6SM VCSH BKN060
      AMD LTD TO CLD VIS AND WIND=

USA.gov is the U.S. government's official web portal to all federal, state and local government web resources and services.